Time;durP1;ratioP1;P1;durP2;ratioP2;P2;SDS_P1;SDS_P2;PMS_P1;PMS_P2;Temp;Humidity;BMP_temperature;BMP_pressure;BME280_temperature;BME280_humidity;BME280_pressure;Samples;Min_cycle;Max_cycle;Signal;HPM_P1;HPM_P2
2023/09/08 00:01:50;;;;;;;;;;;;;;;19.70;100.00;100175.03;4897807;29;20404;-73
2023/09/08 00:04:15;;;;;;;;;;;;;;;19.61;100.00;100168.94;4897840;29;19930;-73
2023/09/08 00:06:41;;;;;;;;;;;;;;;19.62;100.00;100167.94;4897969;29;19924;-73
2023/09/08 00:09:07;;;;;;;;;;;;;;;19.66;100.00;100173.75;4899982;29;19929;-72
2023/09/08 00:11:32;;;;;;;;;;;;;;;19.69;100.00;100173.38;4897390;29;20258;-73
2023/09/08 00:13:57;;;;;;;;;;;;;;;19.60;100.00;100180.69;4897556;29;19927;-74
2023/09/08 00:16:23;;;;;;;;;;;;;;;19.56;100.00;100174.03;4897601;29;19924;-73
2023/09/08 00:18:48;;;;;;;;;;;;;;;19.57;100.00;100181.06;4897352;29;19938;-74
2023/09/08 00:21:13;;;;;;;;;;;;;;;19.52;100.00;100171.91;4900346;29;19923;-74
2023/09/08 00:23:39;;;;;;;;;;;;;;;19.55;100.00;100169.72;4906521;29;20437;-74
2023/09/08 00:26:04;;;;;;;;;;;;;;;19.53;100.00;100169.06;4906277;29;19924;-74
2023/09/08 00:28:29;;;;;;;;;;;;;;;19.49;100.00;100169.63;4910322;29;19930;-74
2023/09/08 00:30:54;;;;;;;;;;;;;;;19.41;100.00;100165.16;4904889;29;19931;-73
2023/09/08 00:33:22;;;;;;;;;;;;;;;19.46;100.00;100164.63;4907431;29;20014;-74
2023/09/08 00:35:50;;;;;;;;;;;;;;;19.31;100.00;100161.09;4905769;29;20440;-73
2023/09/08 00:38:16;;;;;;;;;;;;;;;19.35;100.00;100165.06;4904306;29;19927;-74
2023/09/08 00:40:42;;;;;;;;;;;;;;;19.34;100.00;100166.06;4887317;29;19923;-75
2023/09/08 00:43:07;;;;;;;;;;;;;;;19.33;100.00;100162.56;4906211;29;19927;-74
2023/09/08 00:45:36;;;;;;;;;;;;;;;19.33;100.00;100159.06;4904647;29;19924;-73
2023/09/08 00:48:02;;;;;;;;;;;;;;;19.31;100.00;100156.59;4908261;29;20416;-74
2023/09/08 00:50:27;;;;;;;;;;;;;;;19.30;100.00;100157.59;4904796;29;19924;-74
2023/09/08 00:52:53;;;;;;;;;;;;;;;19.32;100.00;100160.09;4906799;29;19923;-74
2023/09/08 00:55:18;;;;;;;;;;;;;;;19.29;100.00;100157.78;4906555;29;20397;-74
2023/09/08 00:57:43;;;;;;;;;;;;;;;19.31;100.00;100155.75;4903435;29;19934;-74
2023/09/08 01:00:09;;;;;;;;;;;;;;;19.20;100.00;100157.84;4902438;29;20332;-74
2023/09/08 01:02:34;;;;;;;;;;;;;;;19.22;100.00;100152.31;4888225;29;19927;-74
2023/09/08 01:05:00;;;;;;;;;;;;;;;19.12;100.00;100155.28;4905664;29;19971;-74
2023/09/08 01:07:26;;;;;;;;;;;;;;;19.16;100.00;100156.56;4906679;29;19927;-74
2023/09/08 01:09:52;;;;;;;;;;;;;;;19.04;100.00;100158.03;4906993;29;19949;-75
2023/09/08 01:12:18;;;;;;;;;;;;;;;19.03;100.00;100164.38;4907247;29;20027;-73
2023/09/08 01:14:44;;;;;;;;;;;;;;;19.02;100.00;100160.06;4904401;29;19951;-74
2023/09/08 01:17:12;;;;;;;;;;;;;;;19.01;100.00;100162.91;4905170;29;20470;-74
2023/09/08 01:19:38;;;;;;;;;;;;;;;18.92;100.00;100164.00;4901151;29;19974;-74
2023/09/08 01:22:09;;;;;;;;;;;;;;;18.80;100.00;100166.28;4894819;29;19975;-73
2023/09/08 01:24:53;;;;;;;;;;;;;;;18.82;100.00;100158.91;4893882;29;19930;-72
2023/09/08 01:27:18;;;;;;;;;;;;;;;18.79;100.00;100157.41;4895145;29;20011;-74
2023/09/08 01:29:45;;;;;;;;;;;;;;;18.81;100.00;100162.59;4894744;29;19998;-74
2023/09/08 01:32:10;;;;;;;;;;;;;;;18.80;100.00;100166.28;4894605;29;19923;-73
2023/09/08 01:34:39;;;;;;;;;;;;;;;18.72;100.00;100158.34;4894566;29;19923;-74
2023/09/08 01:37:06;;;;;;;;;;;;;;;18.30;100.00;100162.31;4891528;29;19928;-73
2023/09/08 01:39:32;;;;;;;;;;;;;;;18.06;100.00;100156.28;4908021;29;19987;-74
2023/09/08 01:41:57;;;;;;;;;;;;;;;18.10;100.00;100161.09;4895057;29;19928;-74
2023/09/08 01:44:23;;;;;;;;;;;;;;;18.22;100.00;100157.00;4907619;29;19978;-74
2023/09/08 01:46:51;;;;;;;;;;;;;;;18.33;100.00;100164.63;4893993;29;20499;-73
2023/09/08 01:49:16;;;;;;;;;;;;;;;18.42;100.00;100158.22;4908392;29;20010;-74
2023/09/08 01:51:41;;;;;;;;;;;;;;;18.51;100.00;100150.94;4893033;29;20018;-73
2023/09/08 01:54:07;;;;;;;;;;;;;;;18.54;100.00;100152.44;4891547;29;19979;-74
2023/09/08 01:56:32;;;;;;;;;;;;;;;18.42;100.00;100154.72;4894413;29;19923;-73
2023/09/08 01:58:59;;;;;;;;;;;;;;;18.17;100.00;100159.38;4892348;29;19979;-73
2023/09/08 02:01:24;;;;;;;;;;;;;;;18.08;100.00;100157.78;4897830;29;19963;-74
2023/09/08 02:03:49;;;;;;;;;;;;;;;18.18;100.00;100150.38;4907835;29;20072;-74
2023/09/08 02:06:15;;;;;;;;;;;;;;;18.16;100.00;100147.03;4892243;29;20111;-74
2023/09/08 02:08:40;;;;;;;;;;;;;;;17.93;100.00;100139.00;4906078;29;19924;-73
2023/09/08 02:11:05;;;;;;;;;;;;;;;17.81;100.00;100132.41;4892475;29;20377;-74
2023/09/08 02:13:31;;;;;;;;;;;;;;;17.79;100.00;100144.28;4891970;29;19979;-73
2023/09/08 02:15:56;;;;;;;;;;;;;;;17.66;100.00;100136.00;4894022;29;19923;-73
2023/09/08 02:18:24;;;;;;;;;;;;;;;17.70;100.00;100130.13;4897959;29;19924;-73
2023/09/08 02:20:49;;;;;;;;;;;;;;;17.75;100.00;100137.59;4894575;29;20366;-73
2023/09/08 02:23:14;;;;;;;;;;;;;;;17.71;100.00;100136.28;4901879;29;19938;-74
2023/09/08 02:25:40;;;;;;;;;;;;;;;17.74;100.00;100135.94;4899042;29;19923;-73
2023/09/08 02:28:05;;;;;;;;;;;;;;;17.75;100.00;100137.59;4886350;29;19962;-73
2023/09/08 02:30:30;;;;;;;;;;;;;;;17.69;100.00;100128.47;4903690;29;20026;-73
2023/09/08 02:32:57;;;;;;;;;;;;;;;17.76;100.00;100128.59;4896386;29;19931;-74
2023/09/08 02:35:25;;;;;;;;;;;;;;;17.84;100.00;100133.91;4900727;29;19930;-73
2023/09/08 02:37:52;;;;;;;;;;;;;;;17.89;100.00;100139.53;4887218;29;19927;-73
2023/09/08 02:40:20;;;;;;;;;;;;;;;17.96;100.00;100135.16;4898567;29;20408;-74
2023/09/08 02:42:45;;;;;;;;;;;;;;;17.97;100.00;100126.13;4886289;29;19971;-73
2023/09/08 02:45:11;;;;;;;;;;;;;;;17.99;100.00;100129.47;4905330;29;20010;-74
2023/09/08 02:47:37;;;;;;;;;;;;;;;18.10;100.00;100128.22;4883831;29;19972;-75
2023/09/08 02:50:04;;;;;;;;;;;;;;;18.12;100.00;100132.38;4902762;29;19942;-74
2023/09/08 02:52:32;;;;;;;;;;;;;;;18.06;100.00;100130.41;4885400;29;20333;-74
2023/09/08 02:54:57;;;;;;;;;;;;;;;17.88;100.00;100132.53;4900706;29;20000;-74
2023/09/08 02:57:23;;;;;;;;;;;;;;;17.75;100.00;100126.94;4890825;29;19925;-74
2023/09/08 02:59:50;;;;;;;;;;;;;;;17.68;100.00;100125.94;4901863;29;20312;-75
2023/09/08 03:02:16;;;;;;;;;;;;;;;17.68;100.00;100131.28;4903360;29;20449;-75
2023/09/08 03:04:41;;;;;;;;;;;;;;;17.74;100.00;100138.59;4903656;29;19920;-74
2023/09/08 03:07:07;;;;;;;;;;;;;;;17.81;100.00;100128.91;4904159;29;20010;-74
2023/09/08 03:09:33;;;;;;;;;;;;;;;17.85;100.00;100132.88;4901394;29;20002;-74
2023/09/08 03:11:59;;;;;;;;;;;;;;;17.74;100.00;100125.25;4906112;29;19923;-73
2023/09/08 03:14:24;;;;;;;;;;;;;;;17.67;100.00;100124.31;4882298;29;20312;-74
2023/09/08 03:16:49;;;;;;;;;;;;;;;17.55;100.00;100126.50;4885409;29;19994;-73
2023/09/08 03:19:14;;;;;;;;;;;;;;;17.51;100.00;100126.00;4908118;29;20270;-74
2023/09/08 03:21:40;;;;;;;;;;;;;;;17.53;100.00;100123.16;4877275;29;19923;-75
2023/09/08 03:24:05;;;;;;;;;;;;;;;17.59;100.00;100123.31;4898295;29;19974;-74
2023/09/08 03:26:32;;;;;;;;;;;;;;;17.62;100.00;100121.31;4896533;29;19927;-73
2023/09/08 03:28:59;;;;;;;;;;;;;;;17.54;100.00;100114.16;4897257;29;20013;-72
2023/09/08 03:31:25;;;;;;;;;;;;;;;17.44;100.00;100114.34;4898691;29;20018;-74
2023/09/08 03:33:50;;;;;;;;;;;;;;;17.44;100.00;100111.69;4898562;29;19924;-74
2023/09/08 03:36:16;;;;;;;;;;;;;;;17.52;100.00;100111.66;4897328;29;19930;-74
2023/09/08 03:38:42;;;;;;;;;;;;;;;17.56;100.00;100110.31;4912088;29;19923;-74
2023/09/08 03:41:08;;;;;;;;;;;;;;;17.58;100.00;100115.47;4896777;29;19962;-73
2023/09/08 03:43:34;;;;;;;;;;;;;;;17.52;100.00;100106.31;4898123;29;19978;-73
2023/09/08 03:46:00;;;;;;;;;;;;;;;17.53;100.00;100105.31;4898271;29;19924;-73
2023/09/08 03:48:27;;;;;;;;;;;;;;;17.53;100.00;100108.00;4896997;29;19923;-73
2023/09/08 03:50:52;;;;;;;;;;;;;;;17.54;100.00;100109.66;4896455;29;19928;-73
2023/09/08 03:53:18;;;;;;;;;;;;;;;17.52;100.00;100109.00;4896653;29;19955;-73
2023/09/08 03:55:44;;;;;;;;;;;;;;;17.55;100.00;100103.28;4895577;29;19919;-73
2023/09/08 03:58:09;;;;;;;;;;;;;;;17.50;100.00;100107.50;4897896;29;19958;-74
2023/09/08 04:00:35;;;;;;;;;;;;;;;17.40;100.00;100102.38;4896165;29;19919;-73
2023/09/08 04:03:01;;;;;;;;;;;;;;;17.42;100.00;100108.38;4896649;29;19924;-72
2023/09/08 04:05:26;;;;;;;;;;;;;;;17.42;100.00;100105.72;4897733;29;19963;-74
2023/09/08 04:07:52;;;;;;;;;;;;;;;17.43;100.00;100102.06;4898729;29;19923;-72
2023/09/08 04:10:17;;;;;;;;;;;;;;;17.47;100.00;100099.84;4895724;29;19956;-75
2023/09/08 04:12:42;;;;;;;;;;;;;;;17.45;100.00;100097.34;4895910;29;19970;-73
2023/09/08 04:15:08;;;;;;;;;;;;;;;17.51;100.00;100098.50;4897579;29;19979;-74
2023/09/08 04:17:35;;;;;;;;;;;;;;;17.46;100.00;100091.00;4895973;29;20349;-74
2023/09/08 04:20:05;;;;;;;;;;;;;;;17.50;100.00;100086.97;4896137;29;19923;-74
2023/09/08 04:22:32;;;;;;;;;;;;;;;17.49;100.00;100098.69;4904996;29;19934;-73
2023/09/08 04:24:58;;;;;;;;;;;;;;;17.50;100.00;100096.81;4906215;29;20006;-73
2023/09/08 04:27:23;;;;;;;;;;;;;;;17.51;100.00;100102.00;4908277;29;19919;-73
2023/09/08 04:29:49;;;;;;;;;;;;;;;17.48;100.00;100099.69;4887734;29;19923;-73
2023/09/08 04:32:14;;;;;;;;;;;;;;;17.42;100.00;100100.38;4906861;29;19978;-73
2023/09/08 04:34:40;;;;;;;;;;;;;;;17.47;100.00;100108.69;4908467;29;20006;-73
2023/09/08 04:37:06;;;;;;;;;;;;;;;17.36;100.00;100106.41;4907425;29;19974;-73
2023/09/08 04:39:32;;;;;;;;;;;;;;;17.44;100.00;100103.69;4891115;29;19966;-74
2023/09/08 04:41:58;;;;;;;;;;;;;;;17.36;100.00;100111.75;4906378;29;19974;-74
2023/09/08 04:44:24;;;;;;;;;;;;;;;17.16;100.00;100113.13;4886869;29;19956;-75
2023/09/08 04:46:50;;;;;;;;;;;;;;;17.31;100.00;100108.75;4907820;29;20081;-74
2023/09/08 04:49:16;;;;;;;;;;;;;;;17.33;100.00;100106.72;4869817;29;19959;-74
2023/09/08 04:51:41;;;;;;;;;;;;;;;17.40;100.00;100107.72;4889688;29;20096;-73
2023/09/08 04:54:06;;;;;;;;;;;;;;;17.37;100.00;100101.91;4891854;29;19987;-74
2023/09/08 04:56:32;;;;;;;;;;;;;;;17.38;100.00;100109.72;4905515;29;20340;-73
2023/09/08 04:59:00;;;;;;;;;;;;;;;17.43;100.00;100115.38;4905518;29;20047;-73
2023/09/08 05:01:27;;;;;;;;;;;;;;;17.52;100.00;100117.00;4891162;29;20385;-75
2023/09/08 05:03:52;;;;;;;;;;;;;;;17.52;100.00;100117.00;4905484;29;19927;-75
2023/09/08 05:06:18;;;;;;;;;;;;;;;17.54;100.00;100120.34;4907389;29;20496;-75
2023/09/08 05:08:44;;;;;;;;;;;;;;;17.48;100.00;100114.88;4901049;29;19930;-75
2023/09/08 05:11:09;;;;;;;;;;;;;;;17.38;100.00;100117.72;4889136;29;19941;-74
2023/09/08 05:13:35;;;;;;;;;;;;;;;17.35;100.00;100120.75;4889793;29;19930;-75
2023/09/08 05:16:11;;;;;;;;;;;;;;;17.30;100.00;100120.44;4905972;29;20025;-75
2023/09/08 05:18:38;;;;;;;;;;;;;;;17.19;100.00;100121.66;4902741;29;20411;-75
2023/09/08 05:21:03;;;;;;;;;;;;;;;17.02;100.00;100119.19;4906001;29;19930;-75
2023/09/08 05:23:29;;;;;;;;;;;;;;;16.99;100.00;100125.69;4895005;29;19924;-74
2023/09/08 05:25:54;;;;;;;;;;;;;;;17.02;100.00;100129.84;4895987;29;19923;-74
2023/09/08 05:28:20;;;;;;;;;;;;;;;17.12;100.00;100133.16;4894490;29;20387;-75
2023/09/08 05:30:45;;;;;;;;;;;;;;;17.18;100.00;100137.81;4894504;29;20367;-75
2023/09/08 05:33:11;;;;;;;;;;;;;;;17.27;100.00;100143.94;4894680;29;19927;-75
2023/09/08 05:35:36;;;;;;;;;;;;;;;17.36;100.00;100134.91;4893353;29;19931;-75
2023/09/08 05:38:02;;;;;;;;;;;;;;;17.45;100.00;100142.69;4898009;29;19923;-75
2023/09/08 05:40:28;;;;;;;;;;;;;;;17.51;100.00;100142.00;4890902;29;20022;-75
2023/09/08 05:42:53;;;;;;;;;;;;;;;17.60;100.00;100148.19;4895316;29;20010;-75
2023/09/08 05:45:19;;;;;;;;;;;;;;;17.66;100.00;100144.00;4893719;29;19975;-74
2023/09/08 05:47:44;;;;;;;;;;;;;;;17.75;100.00;100149.13;4906655;29;20345;-73
2023/09/08 05:50:11;;;;;;;;;;;;;;;17.79;100.00;100154.97;4908964;29;20237;-73
2023/09/08 05:52:36;;;;;;;;;;;;;;;17.83;100.00;100150.91;4894814;29;19934;-74
2023/09/08 05:55:02;;;;;;;;;;;;;;;17.90;100.00;100143.88;4907040;29;19923;-74
2023/09/08 05:57:27;;;;;;;;;;;;;;;17.95;100.00;100149.53;4894501;29;19931;-75
2023/09/08 05:59:53;;;;;;;;;;;;;;;17.91;100.00;100153.53;4893698;29;19923;-74
2023/09/08 06:02:18;;;;;;;;;;;;;;;17.93;100.00;100151.53;4904923;29;19978;-75
2023/09/08 06:04:45;;;;;;;;;;;;;;;17.94;100.00;100153.19;4894434;29;20396;-75
2023/09/08 06:07:11;;;;;;;;;;;;;;;18.01;100.00;100148.81;4892441;29;19923;-74
2023/09/08 06:09:37;;;;;;;;;;;;;;;18.08;100.00;100160.47;4896025;29;19924;-74
2023/09/08 06:12:02;;;;;;;;;;;;;;;18.12;100.00;100155.59;4909226;29;19923;-74
2023/09/08 06:14:29;;;;;;;;;;;;;;;18.01;100.00;100148.81;4909591;29;19934;-74
2023/09/08 06:16:55;;;;;;;;;;;;;;;17.92;100.00;100149.84;4894216;29;20022;-73
2023/09/08 06:19:20;;;;;;;;;;;;;;;17.91;100.00;100153.53;4894219;29;19928;-73
2023/09/08 06:21:46;;;;;;;;;;;;;;;18.02;100.00;100145.16;4894977;29;20440;-74
2023/09/08 06:24:12;;;;;;;;;;;;;;;18.10;100.00;100152.25;4894351;29;19942;-73
2023/09/08 06:26:38;;;;;;;;;;;;;;;18.07;100.00;100158.78;4893662;29;20304;-74
2023/09/08 06:29:03;;;;;;;;;;;;;;;18.17;100.00;100164.72;4894436;29;20347;-74
2023/09/08 06:31:30;;;;;;;;;;;;;;;18.28;100.00;100163.50;4891019;29;20011;-73
2023/09/08 06:33:56;;;;;;;;;;;;;;;18.40;100.00;100168.25;4893083;29;19934;-74
2023/09/08 06:36:22;;;;;;;;;;;;;;;18.47;100.00;100165.69;4891228;29;19924;-74
2023/09/08 06:38:47;;;;;;;;;;;;;;;18.55;100.00;100156.81;4896643;29;19976;-73
2023/09/08 06:41:12;;;;;;;;;;;;;;;18.61;100.00;100156.94;4892866;29;20407;-74
2023/09/08 06:43:38;;;;;;;;;;;;;;;18.72;100.00;100163.69;4893766;29;20018;-73
2023/09/08 06:46:09;;;;;;;;;;;;;;;18.83;100.00;100165.09;4894270;29;19924;-76
2023/09/08 06:48:35;;;;;;;;;;;;;;;18.90;100.00;100158.84;4894004;29;19944;-75
2023/09/08 06:51:00;;;;;;;;;;;;;;;18.89;100.00;100154.50;4909496;29;19923;-74
2023/09/08 06:53:26;;;;;;;;;;;;;;;18.84;100.00;100146.22;4894132;29;19955;-74
2023/09/08 06:55:52;;;;;;;;;;;;;;;18.81;100.00;100151.91;4893638;29;19934;-73
2023/09/08 06:58:18;;;;;;;;;;;;;;;18.79;100.00;100153.94;4892314;29;19955;-73
2023/09/08 07:00:45;;;;;;;;;;;;;;;18.92;100.00;100156.81;4893539;29;19990;-72
2023/09/08 07:03:11;;;;;;;;;;;;;;;18.98;100.00;100148.06;4894988;29;19930;-72
2023/09/08 07:05:38;;;;;;;;;;;;;;;18.93;100.00;100155.78;4907343;29;20044;-71
2023/09/08 07:08:06;;;;;;;;;;;;;;;19.14;100.00;100150.56;4889913;29;20385;-71
2023/09/08 07:10:31;;;;;;;;;;;;;;;19.27;100.00;100151.75;4891348;29;19955;-72
2023/09/08 07:12:57;;;;;;;;;;;;;;;19.40;100.00;100157.31;4895582;29;19924;-72
2023/09/08 07:15:22;;;;;;;;;;;;;;;19.42;100.00;100152.59;4893866;29;20448;-72
2023/09/08 07:17:47;;;;;;;;;;;;;;;19.49;100.00;100159.75;4889725;29;20400;-72
2023/09/08 07:20:13;;;;;;;;;;;;;;;19.51;100.00;100164.91;4895308;29;19927;-72
2023/09/08 07:22:39;;;;;;;;;;;;;;;19.59;100.00;100164.81;4893609;29;19923;-73
2023/09/08 07:25:06;;;;;;;;;;;;;;;19.67;100.00;100172.75;4889343;29;19932;-72
2023/09/08 07:27:32;;;;;;;;;;;;;;;19.77;100.00;100170.59;4890750;29;19988;-75
2023/09/08 07:29:57;;;;;;;;;;;;;;;19.86;100.00;100165.97;4894096;29;20469;-80
2023/09/08 07:32:24;;;;;;;;;;;;;;;19.94;100.00;100161.34;4893369;29;19923;-78
2023/09/08 07:35:13;;;;;;;;;;;;;;;;;;;;;
2023/09/08 07:37:47;;;;;;;;;;;;;;;20.17;100.00;100165.69;4907456;29;19927;-76
2023/09/08 07:40:13;;;;;;;;;;;;;;;20.23;100.00;100171.13;4890423;29;20305;-76
2023/09/08 07:42:38;;;;;;;;;;;;;;;20.36;100.00;100170.47;4889763;29;19930;-76
2023/09/08 07:45:04;;;;;;;;;;;;;;;20.44;100.00;100173.00;4892921;29;19950;-77
2023/09/08 07:47:30;;;;;;;;;;;;;;;20.53;100.00;100171.88;4894887;29;19967;-77
2023/09/08 07:50:15;;;;;;;;;;;;;;;20.51;100.00;100167.72;4894493;29;20191;-76
2023/09/08 07:52:40;;;;;;;;;;;;;;;20.64;100.00;100178.56;4894164;29;19959;-78
2023/09/08 07:55:06;;;;;;;;;;;;;;;20.70;100.00;100173.28;4894430;29;19997;-78
2023/09/08 07:57:31;;;;;;;;;;;;;;;20.77;100.00;100173.34;4893278;29;19919;-78
2023/09/08 07:59:56;;;;;;;;;;;;;;;20.85;100.00;100165.97;4895131;29;19998;-77
2023/09/08 08:02:22;;;;;;;;;;;;;;;20.88;100.00;100169.28;4894765;29;20370;-78
2023/09/08 08:04:47;;;;;;;;;;;;;;;20.89;100.00;100160.22;4896824;29;19919;-77
2023/09/08 08:07:12;;;;;;;;;;;;;;;21.01;100.00;100166.72;4898015;29;20010;-77
2023/09/08 08:09:37;;;;;;;;;;;;;;;21.12;100.00;100168.84;4898927;29;19919;-76
2023/09/08 08:12:03;;;;;;;;;;;;;;;21.19;100.00;100165.22;4897896;29;20273;-77
2023/09/08 08:14:28;;;;;;;;;;;;;;;21.26;100.00;100173.34;4897470;29;20269;-77
2023/09/08 08:16:54;;;;;;;;;;;;;;;21.35;100.00;100168.63;4897385;29;19978;-78
2023/09/08 08:19:19;;;;;;;;;;;;;;;21.43;100.00;100158.56;4897981;29;20018;-78
2023/09/08 08:21:44;;;;;;;;;;;;;;;21.52;100.00;100161.91;4899711;29;20289;-78
2023/09/08 08:24:10;;;;;;;;;;;;;;;21.60;100.00;100170.63;4906603;29;19974;-78
2023/09/08 08:26:35;;;;;;;;;;;;;;;21.69;100.00;100165.06;4905555;29;19924;-78
2023/09/08 08:29:00;;;;;;;;;;;;;;;21.77;100.00;100164.91;4908180;29;19923;-76
2023/09/08 08:31:26;;;;;;;;;;;;;;;21.85;100.00;100164.75;4904835;29;20431;-78
2023/09/08 08:33:51;;;;;;;;;;;;;;;21.91;100.00;100170.13;4907449;29;20384;-77
2023/09/08 08:36:16;;;;;;;;;;;;;;;21.98;100.00;100175.56;4905857;29;20328;-78
2023/09/08 08:38:42;;;;;;;;;;;;;;;22.02;100.00;100169.59;4905785;29;20010;-76
2023/09/08 08:41:07;;;;;;;;;;;;;;;22.08;100.00;100173.34;4904848;29;20093;-76
2023/09/08 08:43:32;;;;;;;;;;;;;;;22.15;100.00;100163.41;4907817;29;19919;-78
2023/09/08 08:45:58;;;;;;;;;;;;;;;22.23;100.00;100160.53;4904817;29;20355;-78
2023/09/08 08:48:25;;;;;;;;;;;;;;;22.24;100.00;100162.19;4907821;29;19964;-78
2023/09/08 08:50:51;;;;;;;;;;;;;;;22.27;100.00;100161.78;4904926;29;19928;-78
2023/09/08 08:53:17;;;;;;;;;;;;;;;22.35;100.00;100153.53;4907226;29;19933;-78
2023/09/08 08:55:42;;;;;;;;;;;;;;;22.42;100.00;100148.16;4905637;29;20013;-76
2023/09/08 08:58:08;;;;;;;;;;;;;;;22.50;100.00;100149.84;4888786;29;20014;-77
2023/09/08 09:00:34;;;;;;;;;;;;;;;22.58;100.00;100146.94;4907026;29;19923;-78
2023/09/08 09:02:59;;;;;;;;;;;;;;;22.65;100.00;100147.78;4904610;29;19959;-79
2023/09/08 09:05:25;;;;;;;;;;;;;;;22.71;100.00;100137.00;4908044;29;19929;-78
2023/09/08 09:07:51;;;;;;;;;;;;;;;22.78;100.00;100137.88;4904544;29;20300;-78
2023/09/08 09:10:17;;;;;;;;;;;;;;;22.83;100.00;100140.78;4907495;29;19933;-78
2023/09/08 09:12:42;;;;;;;;;;;;;;;22.90;100.00;100135.38;4905650;29;19930;-77
2023/09/08 09:15:11;;;;;;;;;;;;;;;22.95;100.00;100132.91;4888407;29;20347;-77
2023/09/08 09:17:37;;;;;;;;;;;;;;;23.01;100.00;100132.06;4906172;29;19927;-75
2023/09/08 09:20:12;;;;;;;;;;;;;;;23.07;100.00;100133.91;4904670;29;19931;-78
2023/09/08 09:22:37;;;;;;;;;;;;;;;23.14;100.00;100137.44;4898132;29;19939;-79
2023/09/08 09:25:05;;;;;;;;;;;;;;;23.20;100.00;100131.22;4894809;29;19987;-76
2023/09/08 09:27:30;;;;;;;;;;;;;;;23.28;100.00;100130.13;4896174;29;20389;-78
2023/09/08 09:29:58;;;;;;;;;;;;;;;23.38;100.00;100129.72;4896236;29;19928;-79
2023/09/08 09:32:23;;;;;;;;;;;;;;;23.43;100.00;100124.50;4896335;29;19923;-78
2023/09/08 09:34:50;;;;;;;;;;;;;;;23.48;100.00;100122.03;4895970;29;19934;-78
2023/09/08 09:37:15;;;;;;;;;;;;;;;23.53;100.00;100125.75;4895026;29;19963;-77
2023/09/08 09:39:41;;;;;;;;;;;;;;;23.59;100.00;100129.44;4909972;29;19958;-78
2023/09/08 09:42:06;;;;;;;;;;;;;;;23.62;100.00;100123.66;4896206;29;20079;-79
2023/09/08 09:44:31;;;;;;;;;;;;;;;23.65;100.00;100123.22;4896039;29;19930;-78
2023/09/08 09:46:57;;;;;;;;;;;;;;;23.70;100.00;100126.09;4895958;29;19999;-78
2023/09/08 09:49:23;;;;;;;;;;;;;;;23.75;100.00;100123.56;4896074;29;19924;-79
2023/09/08 09:51:53;;;;;;;;;;;;;;;23.81;100.00;100116.50;4895596;29;19927;-78
2023/09/08 09:54:18;;;;;;;;;;;;;;;23.84;100.00;100121.47;4895563;29;19923;-78
2023/09/08 09:56:44;;;;;;;;;;;;;;;23.88;100.00;100115.41;4895422;29;20289;-78
2023/09/08 09:59:10;;;;;;;;;;;;;;;23.97;100.00;100111.44;4895832;29;20010;-77
2023/09/08 10:01:36;;;;;;;;;;;;;;;24.00;100.00;100111.00;4895503;29;19927;-78
2023/09/08 10:04:03;;;;;;;;;;;;;;;24.04;100.00;100100.59;4895932;29;19928;-77
2023/09/08 10:06:31;;;;;;;;;;;;;;;24.08;100.00;100105.38;4895406;29;19930;-78
2023/09/08 10:08:58;;;;;;;;;;;;;;;24.13;100.00;100110.09;4895967;29;20357;-77
2023/09/08 10:11:28;;;;;;;;;;;;;;;24.18;100.00;100101.34;4892759;29;20003;-77
2023/09/08 10:13:56;;;;;;;;;;;;;;;24.24;100.00;100105.91;4895590;29;19927;-77
2023/09/08 10:16:22;;;;;;;;;;;;;;;24.26;100.00;100099.25;4909797;29;19923;-78
2023/09/08 10:18:49;;;;;;;;;;;;;;;24.29;100.00;100097.97;4895283;29;19932;-77
2023/09/08 10:21:16;;;;;;;;;;;;;;;24.34;100.00;100098.16;4895432;29;20362;-77
2023/09/08 10:23:43;;;;;;;;;;;;;;;24.42;100.00;100100.59;4895243;29;19923;-77
2023/09/08 10:26:10;;;;;;;;;;;;;;;24.47;100.00;100092.66;4894463;29;19930;-77
2023/09/08 10:28:36;;;;;;;;;;;;;;;24.54;100.00;100089.91;4895067;29;19930;-78
2023/09/08 10:31:02;;;;;;;;;;;;;;;24.60;100.00;100095.25;4895820;29;20010;-77
2023/09/08 10:33:28;;;;;;;;;;;;;;;24.61;100.00;100080.72;4901197;29;19947;-78
2023/09/08 10:35:53;;;;;;;;;;;;;;;24.63;100.00;100084.00;4901783;29;20397;-77
2023/09/08 10:38:22;;;;;;;;;;;;;;;24.67;100.00;100090.63;4897211;29;19923;-78
2023/09/08 10:40:47;;;;;;;;;;;;;;;24.71;100.00;100080.22;4895996;29;19923;-75
2023/09/08 10:43:12;;;;;;;;;;;;;;;24.73;100.00;100087.03;4894831;29;19952;-76
2023/09/08 10:45:39;;;;;;;;;;;;;;;24.80;100.00;100081.56;4893102;29;20365;-78
2023/09/08 10:48:05;;;;;;;;;;;;;;;24.87;100.00;100074.22;4894628;29;20266;-77
2023/09/08 10:50:35;;;;;;;;;;;;;;;24.91;100.00;100074.66;4894440;29;20296;-77
2023/09/08 10:53:04;;;;;;;;;;;;;;;24.93;100.00;100072.53;4895476;29;19924;-78
2023/09/08 10:55:43;;;;;;;;;;;;;;;24.98;100.00;100070.00;4895727;29;19931;-79
2023/09/08 10:58:10;;;;;;;;;;;;;;;25.00;100.00;100067.91;4908853;29;19923;-78
2023/09/08 11:00:45;;;;;;;;;;;;;;;25.04;100.00;100069.09;4894086;29;19928;-78
2023/09/08 11:03:11;;;;;;;;;;;;;;;25.11;100.00;100067.16;4894516;29;19976;-78
2023/09/08 11:05:36;;;;;;;;;;;;;;;25.14;100.00;100055.91;4892923;29;19941;-78
2023/09/08 11:08:03;;;;;;;;;;;;;;;25.18;100.00;100059.81;4894334;29;19923;-77
2023/09/08 11:10:30;;;;;;;;;;;;;;;25.24;100.00;100053.50;4895136;29;19923;-77
2023/09/08 11:12:55;;;;;;;;;;;;;;;25.33;100.00;100056.75;4890391;29;20377;-78
2023/09/08 11:15:21;;;;;;;;;;;;;;;25.41;99.27;100049.13;4892810;29;19927;-76
2023/09/08 11:17:50;;;;;;;;;;;;;;;25.42;100.00;100052.66;4893738;29;19928;-77
2023/09/08 11:20:16;;;;;;;;;;;;;;;25.47;100.00;100048.22;4893933;29;20384;-77
2023/09/08 11:22:41;;;;;;;;;;;;;;;25.51;96.68;100044.00;4894086;29;19978;-78
2023/09/08 11:25:08;;;;;;;;;;;;;;;25.53;95.64;100047.31;4908554;29;19923;-77
2023/09/08 11:27:33;;;;;;;;;;;;;;;25.59;92.06;100046.44;4893930;29;19935;-76
2023/09/08 11:29:58;;;;;;;;;;;;;;;25.65;92.58;100050.09;4894043;29;19924;-76
2023/09/08 11:32:24;;;;;;;;;;;;;;;25.73;93.08;100039.00;4893916;29;20282;-77
2023/09/08 11:34:50;;;;;;;;;;;;;;;25.83;93.07;100049.22;4893717;29;19939;-77
2023/09/08 11:37:18;;;;;;;;;;;;;;;25.96;91.40;100046.34;4894107;29;19924;-77
2023/09/08 11:39:43;;;;;;;;;;;;;;;26.02;92.14;100040.84;4897480;29;19950;-77
2023/09/08 11:42:11;;;;;;;;;;;;;;;26.12;91.82;100040.25;4897728;29;19924;-77
2023/09/08 11:44:37;;;;;;;;;;;;;;;26.20;89.90;100037.22;4897284;29;19983;-78
2023/09/08 11:47:03;;;;;;;;;;;;;;;26.29;88.99;100030.44;4897312;29;19924;-77
2023/09/08 11:49:35;;;;;;;;;;;;;;;26.42;89.70;100034.81;4897327;29;19924;-77
2023/09/08 11:52:00;;;;;;;;;;;;;;;26.55;86.58;100040.00;4894566;29;20433;-77
2023/09/08 11:54:26;;;;;;;;;;;;;;;26.66;86.80;100041.06;4897597;29;20022;-78
2023/09/08 11:56:51;;;;;;;;;;;;;;;26.77;85.73;100038.34;4897150;29;19924;-78
2023/09/08 11:59:17;;;;;;;;;;;;;;;26.95;85.14;100032.00;4897422;29;19923;-77
2023/09/08 12:01:43;;;;;;;;;;;;;;;27.14;83.27;100028.09;4896938;29;19950;-77
2023/09/08 12:04:16;;;;;;;;;;;;;;;27.36;81.76;100030.13;4897267;29;19971;-76
2023/09/08 12:06:42;;;;;;;;;;;;;;;27.57;80.11;100026.78;4897263;29;20280;-77
2023/09/08 12:09:07;;;;;;;;;;;;;;;27.80;78.68;100023.97;4896343;29;19927;-78
2023/09/08 12:11:41;;;;;;;;;;;;;;;27.98;77.89;100023.75;4897094;29;20385;-77
2023/09/08 12:14:07;;;;;;;;;;;;;;;28.19;78.12;100024.13;4897574;29;19931;-77
2023/09/08 12:16:32;;;;;;;;;;;;;;;28.19;75.04;100018.69;4895744;29;19924;-78
2023/09/08 12:18:58;;;;;;;;;;;;;;;28.34;76.04;100008.91;4897305;29;19962;-79
2023/09/08 12:21:23;;;;;;;;;;;;;;;28.55;75.69;100017.38;4897532;29;19931;-78
2023/09/08 12:23:49;;;;;;;;;;;;;;;28.68;74.06;100017.84;4897162;29;19963;-79